sensor_id;sensor_type;location;lat;lon;timestamp;temperature;humidity
6841;DHT22;3458;53.678;14.080;2023-09-30T00:00:00;17.40;99.90
6841;DHT22;3458;53.678;14.080;2023-09-30T00:02:26;17.40;99.90
6841;DHT22;3458;53.678;14.080;2023-09-30T00:04:51;17.50;99.90
6841;DHT22;3458;53.678;14.080;2023-09-30T00:07:17;17.50;99.90
6841;DHT22;3458;53.678;14.080;2023-09-30T00:09:43;17.50;99.90
6841;DHT22;3458;53.678;14.080;2023-09-30T00:12:08;17.50;99.90
6841;DHT22;3458;53.678;14.080;2023-09-30T00:14:34;17.60;99.90
6841;DHT22;3458;53.678;14.080;2023-09-30T00:17:01;17.60;99.90
6841;DHT22;3458;53.678;14.080;2023-09-30T00:19:26;17.50;99.90
6841;DHT22;3458;53.678;14.080;2023-09-30T00:21:52;17.60;99.90
6841;DHT22;3458;53.678;14.080;2023-09-30T00:24:18;17.50;99.90
6841;DHT22;3458;53.678;14.080;2023-09-30T00:26:43;17.40;99.90
6841;DHT22;3458;53.678;14.080;2023-09-30T00:29:09;17.40;99.90
6841;DHT22;3458;53.678;14.080;2023-09-30T00:31:35;17.40;99.90
6841;DHT22;3458;53.678;14.080;2023-09-30T00:38:53;17.40;99.90
6841;DHT22;3458;53.678;14.080;2023-09-30T00:41:19;17.10;99.90
6841;DHT22;3458;53.678;14.080;2023-09-30T00:43:46;17.10;99.90
6841;DHT22;3458;53.678;14.080;2023-09-30T00:46:21;17.20;99.90
6841;DHT22;3458;53.678;14.080;2023-09-30T00:48:51;17.10;99.90
6841;DHT22;3458;53.678;14.080;2023-09-30T00:51:17;17.10;99.90
6841;DHT22;3458;53.678;14.080;2023-09-30T00:53:43;17.10;99.90
6841;DHT22;3458;53.678;14.080;2023-09-30T00:56:09;17.00;99.90
6841;DHT22;3458;53.678;14.080;2023-09-30T00:58:35;17.00;99.90
6841;DHT22;3458;53.678;14.080;2023-09-30T01:01:03;17.10;99.90
6841;DHT22;3458;53.678;14.080;2023-09-30T01:03:29;17.10;99.90
6841;DHT22;3458;53.678;14.080;2023-09-30T01:05:55;17.10;99.90
6841;DHT22;3458;53.678;14.080;2023-09-30T01:08:21;17.10;99.90
6841;DHT22;3458;53.678;14.080;2023-09-30T01:10:48;17.10;99.90
6841;DHT22;3458;53.678;14.080;2023-09-30T01:13:13;17.00;99.90
6841;DHT22;3458;53.678;14.080;2023-09-30T01:15:39;17.00;99.90
6841;DHT22;3458;53.678;14.080;2023-09-30T01:18:05;17.00;99.90
6841;DHT22;3458;53.678;14.080;2023-09-30T01:20:30;17.00;99.90
6841;DHT22;3458;53.678;14.080;2023-09-30T01:22:57;17.00;99.90
6841;DHT22;3458;53.678;14.080;2023-09-30T01:25:24;17.00;99.90
6841;DHT22;3458;53.678;14.080;2023-09-30T01:27:49;17.00;99.90
6841;DHT22;3458;53.678;14.080;2023-09-30T01:30:16;17.00;99.90
6841;DHT22;3458;53.678;14.080;2023-09-30T01:32:43;16.90;99.90
6841;DHT22;3458;53.678;14.080;2023-09-30T01:35:09;16.90;99.90
6841;DHT22;3458;53.678;14.080;2023-09-30T01:37:35;16.90;99.90
6841;DHT22;3458;53.678;14.080;2023-09-30T01:40:01;16.90;99.90
6841;DHT22;3458;53.678;14.080;2023-09-30T01:42:29;16.90;99.90
6841;DHT22;3458;53.678;14.080;2023-09-30T01:44:54;16.90;99.90
6841;DHT22;3458;53.678;14.080;2023-09-30T01:47:20;16.80;99.90
6841;DHT22;3458;53.678;14.080;2023-09-30T01:49:45;16.80;99.90
6841;DHT22;3458;53.678;14.080;2023-09-30T01:52:11;16.80;99.90
6841;DHT22;3458;53.678;14.080;2023-09-30T01:54:36;16.80;99.90
6841;DHT22;3458;53.678;14.080;2023-09-30T01:57:02;16.80;99.90
6841;DHT22;3458;53.678;14.080;2023-09-30T01:59:28;16.70;99.90
6841;DHT22;3458;53.678;14.080;2023-09-30T02:01:54;16.70;99.90
6841;DHT22;3458;53.678;14.080;2023-09-30T02:04:19;16.60;99.90
6841;DHT22;3458;53.678;14.080;2023-09-30T02:06:45;16.60;99.90
6841;DHT22;3458;53.678;14.080;2023-09-30T02:09:10;16.60;99.90
6841;DHT22;3458;53.678;14.080;2023-09-30T02:11:36;16.60;99.90
6841;DHT22;3458;53.678;14.080;2023-09-30T02:14:03;16.50;99.90
6841;DHT22;3458;53.678;14.080;2023-09-30T02:16:28;16.40;99.90
6841;DHT22;3458;53.678;14.080;2023-09-30T02:18:54;16.40;99.90
6841;DHT22;3458;53.678;14.080;2023-09-30T02:21:19;16.30;99.90
6841;DHT22;3458;53.678;14.080;2023-09-30T02:23:47;16.30;99.90
6841;DHT22;3458;53.678;14.080;2023-09-30T02:26:16;16.30;99.90
6841;DHT22;3458;53.678;14.080;2023-09-30T02:28:43;16.20;99.90
6841;DHT22;3458;53.678;14.080;2023-09-30T02:31:08;16.20;99.90
6841;DHT22;3458;53.678;14.080;2023-09-30T02:33:34;16.10;99.90
6841;DHT22;3458;53.678;14.080;2023-09-30T02:36:07;16.10;99.90
6841;DHT22;3458;53.678;14.080;2023-09-30T02:38:32;16.10;99.90
6841;DHT22;3458;53.678;14.080;2023-09-30T02:40:58;16.10;99.90
6841;DHT22;3458;53.678;14.080;2023-09-30T02:43:23;16.00;99.90
6841;DHT22;3458;53.678;14.080;2023-09-30T02:45:49;16.00;99.90
6841;DHT22;3458;53.678;14.080;2023-09-30T02:48:15;16.00;99.90
6841;DHT22;3458;53.678;14.080;2023-09-30T02:50:43;15.90;99.90
6841;DHT22;3458;53.678;14.080;2023-09-30T02:53:10;15.90;99.90
6841;DHT22;3458;53.678;14.080;2023-09-30T02:55:36;15.80;99.90
6841;DHT22;3458;53.678;14.080;2023-09-30T02:58:02;15.80;99.90
6841;DHT22;3458;53.678;14.080;2023-09-30T03:00:27;15.80;99.90
6841;DHT22;3458;53.678;14.080;2023-09-30T03:03:00;15.80;99.90
6841;DHT22;3458;53.678;14.080;2023-09-30T03:05:27;15.70;99.90
6841;DHT22;3458;53.678;14.080;2023-09-30T03:07:53;15.70;99.90
6841;DHT22;3458;53.678;14.080;2023-09-30T03:10:20;15.70;99.90
6841;DHT22;3458;53.678;14.080;2023-09-30T03:12:49;15.70;99.90
6841;DHT22;3458;53.678;14.080;2023-09-30T03:15:15;15.70;99.90
6841;DHT22;3458;53.678;14.080;2023-09-30T03:17:41;15.70;99.90
6841;DHT22;3458;53.678;14.080;2023-09-30T03:20:07;15.60;99.90
6841;DHT22;3458;53.678;14.080;2023-09-30T03:22:38;15.60;99.90
6841;DHT22;3458;53.678;14.080;2023-09-30T03:25:04;15.60;99.90
6841;DHT22;3458;53.678;14.080;2023-09-30T03:27:33;15.60;99.90
6841;DHT22;3458;53.678;14.080;2023-09-30T03:29:58;15.60;99.90
6841;DHT22;3458;53.678;14.080;2023-09-30T03:32:24;15.60;99.90
6841;DHT22;3458;53.678;14.080;2023-09-30T03:34:51;15.60;99.90
6841;DHT22;3458;53.678;14.080;2023-09-30T03:37:17;15.50;99.90
6841;DHT22;3458;53.678;14.080;2023-09-30T03:39:43;15.50;99.90
6841;DHT22;3458;53.678;14.080;2023-09-30T03:42:08;15.50;99.90
6841;DHT22;3458;53.678;14.080;2023-09-30T03:44:37;15.40;99.90
6841;DHT22;3458;53.678;14.080;2023-09-30T03:47:03;15.30;99.90
6841;DHT22;3458;53.678;14.080;2023-09-30T03:49:29;15.30;99.90
6841;DHT22;3458;53.678;14.080;2023-09-30T03:51:54;15.30;99.90
6841;DHT22;3458;53.678;14.080;2023-09-30T03:54:20;15.30;99.90
6841;DHT22;3458;53.678;14.080;2023-09-30T03:56:45;15.30;99.90
6841;DHT22;3458;53.678;14.080;2023-09-30T03:59:14;15.20;99.90
6841;DHT22;3458;53.678;14.080;2023-09-30T04:01:39;15.20;99.90
6841;DHT22;3458;53.678;14.080;2023-09-30T04:04:07;15.20;99.90
6841;DHT22;3458;53.678;14.080;2023-09-30T04:06:34;15.20;99.90
6841;DHT22;3458;53.678;14.080;2023-09-30T04:09:03;15.20;99.90
6841;DHT22;3458;53.678;14.080;2023-09-30T04:11:35;15.20;99.90
6841;DHT22;3458;53.678;14.080;2023-09-30T04:14:00;15.10;99.90
6841;DHT22;3458;53.678;14.080;2023-09-30T04:16:26;15.20;99.90
6841;DHT22;3458;53.678;14.080;2023-09-30T04:18:54;15.10;99.90
6841;DHT22;3458;53.678;14.080;2023-09-30T04:21:20;15.00;99.90
6841;DHT22;3458;53.678;14.080;2023-09-30T04:23:46;15.00;99.90
6841;DHT22;3458;53.678;14.080;2023-09-30T04:26:12;15.00;99.90
6841;DHT22;3458;53.678;14.080;2023-09-30T04:28:37;14.90;99.90
6841;DHT22;3458;53.678;14.080;2023-09-30T04:31:03;14.90;99.90
6841;DHT22;3458;53.678;14.080;2023-09-30T04:33:30;14.90;99.90
6841;DHT22;3458;53.678;14.080;2023-09-30T04:35:55;14.90;99.90
6841;DHT22;3458;53.678;14.080;2023-09-30T04:38:21;14.90;99.90
6841;DHT22;3458;53.678;14.080;2023-09-30T04:40:46;14.90;99.90
6841;DHT22;3458;53.678;14.080;2023-09-30T04:43:17;14.90;99.90
6841;DHT22;3458;53.678;14.080;2023-09-30T04:45:42;14.90;99.90
6841;DHT22;3458;53.678;14.080;2023-09-30T04:48:08;14.80;99.90
6841;DHT22;3458;53.678;14.080;2023-09-30T04:50:34;14.80;99.90
6841;DHT22;3458;53.678;14.080;2023-09-30T04:52:59;14.80;99.90
6841;DHT22;3458;53.678;14.080;2023-09-30T04:55:25;14.90;99.90
6841;DHT22;3458;53.678;14.080;2023-09-30T04:57:51;14.90;99.90
6841;DHT22;3458;53.678;14.080;2023-09-30T05:00:18;14.90;99.90
6841;DHT22;3458;53.678;14.080;2023-09-30T05:02:45;14.80;99.90
6841;DHT22;3458;53.678;14.080;2023-09-30T05:05:11;14.80;99.90
6841;DHT22;3458;53.678;14.080;2023-09-30T05:07:36;14.80;99.90
6841;DHT22;3458;53.678;14.080;2023-09-30T05:10:05;14.80;99.90
6841;DHT22;3458;53.678;14.080;2023-09-30T05:12:35;14.70;99.90
6841;DHT22;3458;53.678;14.080;2023-09-30T05:15:01;14.70;99.90
6841;DHT22;3458;53.678;14.080;2023-09-30T05:17:27;14.70;99.90
6841;DHT22;3458;53.678;14.080;2023-09-30T05:19:54;14.70;99.90
6841;DHT22;3458;53.678;14.080;2023-09-30T05:22:19;14.70;99.90
6841;DHT22;3458;53.678;14.080;2023-09-30T05:24:50;14.60;99.90
6841;DHT22;3458;53.678;14.080;2023-09-30T05:27:15;14.60;99.90
6841;DHT22;3458;53.678;14.080;2023-09-30T05:29:42;14.60;99.90
6841;DHT22;3458;53.678;14.080;2023-09-30T05:32:08;14.70;99.90
6841;DHT22;3458;53.678;14.080;2023-09-30T05:34:34;14.70;99.90
6841;DHT22;3458;53.678;14.080;2023-09-30T05:36:59;14.60;99.90
6841;DHT22;3458;53.678;14.080;2023-09-30T05:39:25;14.60;99.90
6841;DHT22;3458;53.678;14.080;2023-09-30T05:41:50;14.60;99.90
6841;DHT22;3458;53.678;14.080;2023-09-30T05:44:16;14.50;99.90
6841;DHT22;3458;53.678;14.080;2023-09-30T05:46:41;14.60;99.90
6841;DHT22;3458;53.678;14.080;2023-09-30T05:49:10;14.60;99.90
6841;DHT22;3458;53.678;14.080;2023-09-30T05:51:36;14.70;99.90
6841;DHT22;3458;53.678;14.080;2023-09-30T05:54:02;14.60;99.90
6841;DHT22;3458;53.678;14.080;2023-09-30T05:56:27;14.60;99.90
6841;DHT22;3458;53.678;14.080;2023-09-30T05:58:53;14.50;99.90
6841;DHT22;3458;53.678;14.080;2023-09-30T06:01:18;14.50;99.90
6841;DHT22;3458;53.678;14.080;2023-09-30T06:03:46;14.50;99.90
6841;DHT22;3458;53.678;14.080;2023-09-30T06:06:15;14.50;99.90
6841;DHT22;3458;53.678;14.080;2023-09-30T06:08:42;14.50;99.90
6841;DHT22;3458;53.678;14.080;2023-09-30T06:11:16;14.60;99.90
6841;DHT22;3458;53.678;14.080;2023-09-30T06:13:42;14.60;99.90
6841;DHT22;3458;53.678;14.080;2023-09-30T06:16:07;14.60;99.90
6841;DHT22;3458;53.678;14.080;2023-09-30T06:18:33;14.70;99.90
6841;DHT22;3458;53.678;14.080;2023-09-30T06:20:58;14.60;99.90
6841;DHT22;3458;53.678;14.080;2023-09-30T06:23:23;14.60;99.90
6841;DHT22;3458;53.678;14.080;2023-09-30T06:25:49;14.60;99.90
6841;DHT22;3458;53.678;14.080;2023-09-30T06:28:14;14.60;99.90
6841;DHT22;3458;53.678;14.080;2023-09-30T06:30:40;14.70;99.90
6841;DHT22;3458;53.678;14.080;2023-09-30T06:33:07;14.60;99.90
6841;DHT22;3458;53.678;14.080;2023-09-30T06:35:34;14.70;99.90
6841;DHT22;3458;53.678;14.080;2023-09-30T06:38:03;14.60;99.90
6841;DHT22;3458;53.678;14.080;2023-09-30T06:40:28;14.70;99.90
6841;DHT22;3458;53.678;14.080;2023-09-30T06:42:54;14.60;99.90
6841;DHT22;3458;53.678;14.080;2023-09-30T06:45:19;14.60;99.90
6841;DHT22;3458;53.678;14.080;2023-09-30T06:47:47;14.60;99.90
6841;DHT22;3458;53.678;14.080;2023-09-30T06:50:13;14.70;99.90
6841;DHT22;3458;53.678;14.080;2023-09-30T06:52:42;14.80;99.90
6841;DHT22;3458;53.678;14.080;2023-09-30T06:55:10;14.80;99.90
6841;DHT22;3458;53.678;14.080;2023-09-30T06:57:39;14.80;99.90
6841;DHT22;3458;53.678;14.080;2023-09-30T07:00:10;14.80;99.90
6841;DHT22;3458;53.678;14.080;2023-09-30T07:02:37;14.90;99.90
6841;DHT22;3458;53.678;14.080;2023-09-30T07:05:14;15.00;99.90
6841;DHT22;3458;53.678;14.080;2023-09-30T07:07:40;15.00;99.90
6841;DHT22;3458;53.678;14.080;2023-09-30T07:10:06;15.00;99.90
6841;DHT22;3458;53.678;14.080;2023-09-30T07:12:33;15.00;99.90
6841;DHT22;3458;53.678;14.080;2023-09-30T07:15:01;15.00;99.90
6841;DHT22;3458;53.678;14.080;2023-09-30T07:17:27;15.10;99.90
6841;DHT22;3458;53.678;14.080;2023-09-30T07:19:52;15.10;99.90
6841;DHT22;3458;53.678;14.080;2023-09-30T07:22:18;15.20;99.90
6841;DHT22;3458;53.678;14.080;2023-09-30T07:24:44;15.30;99.90
6841;DHT22;3458;53.678;14.080;2023-09-30T07:27:09;15.30;99.90
6841;DHT22;3458;53.678;14.080;2023-09-30T07:29:35;15.30;99.90
6841;DHT22;3458;53.678;14.080;2023-09-30T07:32:00;15.40;99.90
6841;DHT22;3458;53.678;14.080;2023-09-30T07:34:26;15.40;99.90
6841;DHT22;3458;53.678;14.080;2023-09-30T07:36:52;15.50;99.90
6841;DHT22;3458;53.678;14.080;2023-09-30T07:39:17;15.50;99.90
6841;DHT22;3458;53.678;14.080;2023-09-30T07:41:43;15.50;99.90
6841;DHT22;3458;53.678;14.080;2023-09-30T07:44:08;15.50;99.90
6841;DHT22;3458;53.678;14.080;2023-09-30T07:46:35;15.50;99.90
6841;DHT22;3458;53.678;14.080;2023-09-30T07:49:00;15.60;99.90
6841;DHT22;3458;53.678;14.080;2023-09-30T07:51:28;15.60;99.90
6841;DHT22;3458;53.678;14.080;2023-09-30T07:53:55;15.70;99.90
6841;DHT22;3458;53.678;14.080;2023-09-30T07:56:20;15.70;99.90
6841;DHT22;3458;53.678;14.080;2023-09-30T07:58:47;15.70;99.90
6841;DHT22;3458;53.678;14.080;2023-09-30T08:01:14;15.70;99.90
6841;DHT22;3458;53.678;14.080;2023-09-30T08:03:40;15.70;99.90
6841;DHT22;3458;53.678;14.080;2023-09-30T08:06:07;15.80;99.90
6841;DHT22;3458;53.678;14.080;2023-09-30T08:08:34;15.90;99.90
6841;DHT22;3458;53.678;14.080;2023-09-30T08:11:00;15.90;99.90
6841;DHT22;3458;53.678;14.080;2023-09-30T08:13:25;15.90;99.90
6841;DHT22;3458;53.678;14.080;2023-09-30T08:15:51;15.90;99.90
6841;DHT22;3458;53.678;14.080;2023-09-30T08:18:18;15.90;99.90
6841;DHT22;3458;53.678;14.080;2023-09-30T08:20:44;15.90;99.90
6841;DHT22;3458;53.678;14.080;2023-09-30T08:23:09;15.90;99.90
6841;DHT22;3458;53.678;14.080;2023-09-30T08:25:37;15.90;99.90
6841;DHT22;3458;53.678;14.080;2023-09-30T08:28:03;15.90;99.90
6841;DHT22;3458;53.678;14.080;2023-09-30T08:30:29;15.90;99.90
6841;DHT22;3458;53.678;14.080;2023-09-30T08:32:54;16.00;99.90
6841;DHT22;3458;53.678;14.080;2023-09-30T08:35:20;16.00;99.90
6841;DHT22;3458;53.678;14.080;2023-09-30T08:37:45;16.10;99.90
6841;DHT22;3458;53.678;14.080;2023-09-30T08:40:11;16.10;99.90
6841;DHT22;3458;53.678;14.080;2023-09-30T08:42:39;16.10;99.90
6841;DHT22;3458;53.678;14.080;2023-09-30T08:45:05;16.10;99.90
6841;DHT22;3458;53.678;14.080;2023-09-30T08:47:33;16.00;99.90
6841;DHT22;3458;53.678;14.080;2023-09-30T08:50:00;16.10;99.90
6841;DHT22;3458;53.678;14.080;2023-09-30T08:52:33;16.10;99.90
6841;DHT22;3458;53.678;14.080;2023-09-30T08:55:02;16.10;99.90
6841;DHT22;3458;53.678;14.080;2023-09-30T08:57:29;16.10;99.90
6841;DHT22;3458;53.678;14.080;2023-09-30T08:59:55;16.20;99.90
6841;DHT22;3458;53.678;14.080;2023-09-30T09:02:20;16.30;99.90
6841;DHT22;3458;53.678;14.080;2023-09-30T09:04:46;16.40;99.90
6841;DHT22;3458;53.678;14.080;2023-09-30T09:07:12;16.60;99.90
6841;DHT22;3458;53.678;14.080;2023-09-30T09:09:38;16.70;99.90
6841;DHT22;3458;53.678;14.080;2023-09-30T09:12:04;16.80;99.90
6841;DHT22;3458;53.678;14.080;2023-09-30T09:14:40;16.90;99.90
6841;DHT22;3458;53.678;14.080;2023-09-30T09:17:07;17.00;99.90
6841;DHT22;3458;53.678;14.080;2023-09-30T09:19:33;17.10;99.90
6841;DHT22;3458;53.678;14.080;2023-09-30T09:22:00;17.10;99.90
6841;DHT22;3458;53.678;14.080;2023-09-30T09:24:31;17.20;99.90
6841;DHT22;3458;53.678;14.080;2023-09-30T09:27:09;17.30;99.90
6841;DHT22;3458;53.678;14.080;2023-09-30T09:29:35;17.20;99.90
6841;DHT22;3458;53.678;14.080;2023-09-30T09:32:12;17.20;99.90
6841;DHT22;3458;53.678;14.080;2023-09-30T09:34:40;17.30;99.90
6841;DHT22;3458;53.678;14.080;2023-09-30T09:37:20;17.40;99.90
6841;DHT22;3458;53.678;14.080;2023-09-30T09:39:55;17.40;99.90
6841;DHT22;3458;53.678;14.080;2023-09-30T09:42:32;17.50;99.90
6841;DHT22;3458;53.678;14.080;2023-09-30T09:44:59;17.60;99.90
6841;DHT22;3458;53.678;14.080;2023-09-30T09:47:25;17.80;99.90
6841;DHT22;3458;53.678;14.080;2023-09-30T09:49:52;17.90;99.90
6841;DHT22;3458;53.678;14.080;2023-09-30T09:52:21;18.00;99.90
6841;DHT22;3458;53.678;14.080;2023-09-30T09:54:48;18.00;99.90
6841;DHT22;3458;53.678;14.080;2023-09-30T09:57:16;18.00;99.90
6841;DHT22;3458;53.678;14.080;2023-09-30T09:59:43;18.10;99.90
6841;DHT22;3458;53.678;14.080;2023-09-30T10:02:13;18.00;99.90
6841;DHT22;3458;53.678;14.080;2023-09-30T10:04:47;18.00;99.90
6841;DHT22;3458;53.678;14.080;2023-09-30T10:07:26;18.10;99.90
6841;DHT22;3458;53.678;14.080;2023-09-30T10:09:52;18.30;99.90
6841;DHT22;3458;53.678;14.080;2023-09-30T10:12:19;18.40;99.90
6841;DHT22;3458;53.678;14.080;2023-09-30T10:14:46;18.30;99.90
6841;DHT22;3458;53.678;14.080;2023-09-30T10:17:12;18.30;99.90
6841;DHT22;3458;53.678;14.080;2023-09-30T10:20:04;18.40;99.90
6841;DHT22;3458;53.678;14.080;2023-09-30T10:22:31;18.40;99.90
6841;DHT22;3458;53.678;14.080;2023-09-30T10:24:58;18.40;99.90
6841;DHT22;3458;53.678;14.080;2023-09-30T10:35:42;18.60;99.90
6841;DHT22;3458;53.678;14.080;2023-09-30T10:40:52;18.80;99.90
6841;DHT22;3458;53.678;14.080;2023-09-30T10:45:59;18.40;99.90
6841;DHT22;3458;53.678;14.080;2023-09-30T10:50:55;18.10;99.90
6841;DHT22;3458;53.678;14.080;2023-09-30T10:53:22;18.10;99.90
6841;DHT22;3458;53.678;14.080;2023-09-30T10:55:54;18.30;99.90
6841;DHT22;3458;53.678;14.080;2023-09-30T10:58:20;18.40;99.90
6841;DHT22;3458;53.678;14.080;2023-09-30T11:00:53;18.30;99.90
6841;DHT22;3458;53.678;14.080;2023-09-30T11:03:22;18.20;99.90
6841;DHT22;3458;53.678;14.080;2023-09-30T11:05:48;18.20;99.90
6841;DHT22;3458;53.678;14.080;2023-09-30T11:08:15;18.20;99.90
6841;DHT22;3458;53.678;14.080;2023-09-30T11:10:54;18.40;99.90
6841;DHT22;3458;53.678;14.080;2023-09-30T11:13:20;18.70;99.90
6841;DHT22;3458;53.678;14.080;2023-09-30T11:15:46;18.90;99.90
6841;DHT22;3458;53.678;14.080;2023-09-30T11:18:16;18.90;99.90
6841;DHT22;3458;53.678;14.080;2023-09-30T11:20:43;18.80;99.90
6841;DHT22;3458;53.678;14.080;2023-09-30T11:23:12;18.90;99.90
6841;DHT22;3458;53.678;14.080;2023-09-30T11:25:39;19.00;99.90
6841;DHT22;3458;53.678;14.080;2023-09-30T11:28:18;19.30;99.90
6841;DHT22;3458;53.678;14.080;2023-09-30T11:31:00;19.60;99.90
6841;DHT22;3458;53.678;14.080;2023-09-30T11:33:27;19.90;99.90
6841;DHT22;3458;53.678;14.080;2023-09-30T11:36:04;20.20;99.90
6841;DHT22;3458;53.678;14.080;2023-09-30T11:38:31;20.40;99.90
6841;DHT22;3458;53.678;14.080;2023-09-30T11:41:05;20.30;99.90
6841;DHT22;3458;53.678;14.080;2023-09-30T11:43:32;20.30;99.90
6841;DHT22;3458;53.678;14.080;2023-09-30T11:46:12;20.20;99.90
6841;DHT22;3458;53.678;14.080;2023-09-30T11:49:02;20.00;99.70
6841;DHT22;3458;53.678;14.080;2023-09-30T11:51:28;20.00;98.30
6841;DHT22;3458;53.678;14.080;2023-09-30T11:53:55;20.20;98.60
6841;DHT22;3458;53.678;14.080;2023-09-30T11:56:23;20.50;98.80
6841;DHT22;3458;53.678;14.080;2023-09-30T11:58:54;20.80;97.40
6841;DHT22;3458;53.678;14.080;2023-09-30T12:01:20;20.90;96.30
6841;DHT22;3458;53.678;14.080;2023-09-30T12:03:47;21.10;94.90
6841;DHT22;3458;53.678;14.080;2023-09-30T12:06:13;21.10;94.80
6841;DHT22;3458;53.678;14.080;2023-09-30T12:08:39;20.90;94.30
6841;DHT22;3458;53.678;14.080;2023-09-30T12:11:05;20.90;94.30
6841;DHT22;3458;53.678;14.080;2023-09-30T12:13:31;20.80;93.60
6841;DHT22;3458;53.678;14.080;2023-09-30T12:15:56;20.80;93.40
6841;DHT22;3458;53.678;14.080;2023-09-30T12:18:22;20.80;92.60
6841;DHT22;3458;53.678;14.080;2023-09-30T12:20:50;20.60;92.00
6841;DHT22;3458;53.678;14.080;2023-09-30T12:23:17;20.60;92.20
6841;DHT22;3458;53.678;14.080;2023-09-30T12:25:44;20.70;91.10
6841;DHT22;3458;53.678;14.080;2023-09-30T12:28:10;21.00;90.30
6841;DHT22;3458;53.678;14.080;2023-09-30T12:30:35;21.30;90.70
6841;DHT22;3458;53.678;14.080;2023-09-30T12:33:01;21.20;89.70
6841;DHT22;3458;53.678;14.080;2023-09-30T12:35:27;20.90;90.00
6841;DHT22;3458;53.678;14.080;2023-09-30T12:37:52;20.60;90.50
6841;DHT22;3458;53.678;14.080;2023-09-30T12:40:18;20.30;91.30
6841;DHT22;3458;53.678;14.080;2023-09-30T12:42:44;20.20;91.90
6841;DHT22;3458;53.678;14.080;2023-09-30T12:45:13;20.50;92.50
6841;DHT22;3458;53.678;14.080;2023-09-30T12:47:39;20.80;92.50
6841;DHT22;3458;53.678;14.080;2023-09-30T12:50:04;21.20;92.20
6841;DHT22;3458;53.678;14.080;2023-09-30T12:52:30;21.40;91.40
6841;DHT22;3458;53.678;14.080;2023-09-30T12:54:57;21.40;90.60
6841;DHT22;3458;53.678;14.080;2023-09-30T12:57:23;21.40;90.10
6841;DHT22;3458;53.678;14.080;2023-09-30T12:59:49;21.60;90.60
6841;DHT22;3458;53.678;14.080;2023-09-30T13:02:15;21.70;90.30
6841;DHT22;3458;53.678;14.080;2023-09-30T13:04:41;21.70;89.30
6841;DHT22;3458;53.678;14.080;2023-09-30T13:07:09;21.80;85.60
6841;DHT22;3458;53.678;14.080;2023-09-30T13:09:38;22.00;85.20
6841;DHT22;3458;53.678;14.080;2023-09-30T13:12:04;22.20;82.60
6841;DHT22;3458;53.678;14.080;2023-09-30T13:14:30;22.30;80.10
6841;DHT22;3458;53.678;14.080;2023-09-30T13:16:56;22.30;78.60
6841;DHT22;3458;53.678;14.080;2023-09-30T13:19:21;22.30;78.70
6841;DHT22;3458;53.678;14.080;2023-09-30T14:30:09;22.50;78.00
6841;DHT22;3458;53.678;14.080;2023-09-30T14:32:35;23.10;66.60
6841;DHT22;3458;53.678;14.080;2023-09-30T14:35:01;23.00;67.30
6841;DHT22;3458;53.678;14.080;2023-09-30T14:37:26;22.60;67.90
6841;DHT22;3458;53.678;14.080;2023-09-30T14:39:52;22.10;68.80
6841;DHT22;3458;53.678;14.080;2023-09-30T14:42:18;21.80;70.00
6841;DHT22;3458;53.678;14.080;2023-09-30T14:44:43;21.50;71.70
6841;DHT22;3458;53.678;14.080;2023-09-30T14:47:09;21.30;73.10
6841;DHT22;3458;53.678;14.080;2023-09-30T14:49:34;21.30;73.90
6841;DHT22;3458;53.678;14.080;2023-09-30T14:52:00;21.10;74.80
6841;DHT22;3458;53.678;14.080;2023-09-30T14:54:26;21.10;75.00
6841;DHT22;3458;53.678;14.080;2023-09-30T14:56:51;21.20;75.20
6841;DHT22;3458;53.678;14.080;2023-09-30T14:59:17;21.10;75.40
6841;DHT22;3458;53.678;14.080;2023-09-30T15:01:43;21.10;75.90
6841;DHT22;3458;53.678;14.080;2023-09-30T15:04:08;20.90;76.40
6841;DHT22;3458;53.678;14.080;2023-09-30T15:06:34;20.70;76.40
6841;DHT22;3458;53.678;14.080;2023-09-30T15:09:00;20.60;77.80
6841;DHT22;3458;53.678;14.080;2023-09-30T15:11:27;20.60;78.70
6841;DHT22;3458;53.678;14.080;2023-09-30T15:13:52;20.80;79.60
6841;DHT22;3458;53.678;14.080;2023-09-30T15:16:20;21.00;79.10
6841;DHT22;3458;53.678;14.080;2023-09-30T15:18:49;21.20;79.30
6841;DHT22;3458;53.678;14.080;2023-09-30T15:21:15;21.30;78.50
6841;DHT22;3458;53.678;14.080;2023-09-30T15:23:41;21.30;77.60
6841;DHT22;3458;53.678;14.080;2023-09-30T15:26:08;21.40;76.70
6841;DHT22;3458;53.678;14.080;2023-09-30T15:28:33;21.40;75.90
6841;DHT22;3458;53.678;14.080;2023-09-30T15:30:59;21.40;76.10
6841;DHT22;3458;53.678;14.080;2023-09-30T15:33:27;21.40;76.60
6841;DHT22;3458;53.678;14.080;2023-09-30T15:35:52;21.50;76.10
6841;DHT22;3458;53.678;14.080;2023-09-30T15:38:18;21.40;75.60
6841;DHT22;3458;53.678;14.080;2023-09-30T15:40:51;21.20;76.50
6841;DHT22;3458;53.678;14.080;2023-09-30T15:43:18;21.00;77.00
6841;DHT22;3458;53.678;14.080;2023-09-30T15:45:44;20.70;77.80
6841;DHT22;3458;53.678;14.080;2023-09-30T15:48:10;20.50;78.90
6841;DHT22;3458;53.678;14.080;2023-09-30T15:50:35;20.30;79.20
6841;DHT22;3458;53.678;14.080;2023-09-30T15:53:01;20.20;80.40
6841;DHT22;3458;53.678;14.080;2023-09-30T15:55:26;20.00;81.10
6841;DHT22;3458;53.678;14.080;2023-09-30T15:57:52;19.90;81.40
6841;DHT22;3458;53.678;14.080;2023-09-30T16:00:17;19.80;82.20
6841;DHT22;3458;53.678;14.080;2023-09-30T16:02:43;19.70;83.50
6841;DHT22;3458;53.678;14.080;2023-09-30T16:05:09;19.70;83.90
6841;DHT22;3458;53.678;14.080;2023-09-30T16:07:34;19.70;84.20
6841;DHT22;3458;53.678;14.080;2023-09-30T16:10:00;19.50;85.20
6841;DHT22;3458;53.678;14.080;2023-09-30T16:19:45;19.40;85.60
6841;DHT22;3458;53.678;14.080;2023-09-30T16:22:10;19.10;89.00
6841;DHT22;3458;53.678;14.080;2023-09-30T16:24:36;19.00;89.80
6841;DHT22;3458;53.678;14.080;2023-09-30T16:27:01;19.00;90.40
6841;DHT22;3458;53.678;14.080;2023-09-30T16:29:27;18.90;90.60
6841;DHT22;3458;53.678;14.080;2023-09-30T16:31:52;18.90;91.30
6841;DHT22;3458;53.678;14.080;2023-09-30T16:34:18;18.90;91.20
6841;DHT22;3458;53.678;14.080;2023-09-30T16:36:43;18.80;91.50
6841;DHT22;3458;53.678;14.080;2023-09-30T16:39:08;18.80;91.70
6841;DHT22;3458;53.678;14.080;2023-09-30T16:41:34;18.80;92.00
6841;DHT22;3458;53.678;14.080;2023-09-30T16:43:59;18.70;92.20
6841;DHT22;3458;53.678;14.080;2023-09-30T17:01:01;18.70;92.40
6841;DHT22;3458;53.678;14.080;2023-09-30T17:03:27;18.40;93.90
6841;DHT22;3458;53.678;14.080;2023-09-30T17:05:53;18.40;94.10
6841;DHT22;3458;53.678;14.080;2023-09-30T17:08:19;18.30;94.30
6841;DHT22;3458;53.678;14.080;2023-09-30T17:10:44;18.30;94.50
6841;DHT22;3458;53.678;14.080;2023-09-30T17:13:10;18.30;94.70
6841;DHT22;3458;53.678;14.080;2023-09-30T17:15:41;18.30;94.80
6841;DHT22;3458;53.678;14.080;2023-09-30T17:18:06;18.20;95.10
6841;DHT22;3458;53.678;14.080;2023-09-30T17:20:31;18.20;95.40
6841;DHT22;3458;53.678;14.080;2023-09-30T17:22:57;18.20;95.60
6841;DHT22;3458;53.678;14.080;2023-09-30T17:25:22;18.20;95.70
6841;DHT22;3458;53.678;14.080;2023-09-30T17:27:51;18.20;95.90
6841;DHT22;3458;53.678;14.080;2023-09-30T17:30:16;18.20;96.10
6841;DHT22;3458;53.678;14.080;2023-09-30T17:35:08;18.20;96.20